sensor_id;sensor_type;location;lat;lon;timestamp;P1;durP1;ratioP1;P2;durP2;ratioP2
28252;SDS011;15515;45.588;5.276;2022-10-16T07:22:01;10.17;;;4.47;;
28252;SDS011;15515;45.588;5.276;2022-10-16T07:24:29;7.35;;;4.00;;
28252;SDS011;15515;45.588;5.276;2022-10-16T07:26:56;6.70;;;3.88;;
28252;SDS011;15515;45.588;5.276;2022-10-16T07:29:24;7.88;;;4.13;;
28252;SDS011;15515;45.588;5.276;2022-10-16T07:31:51;7.00;;;4.10;;
28252;SDS011;15515;45.588;5.276;2022-10-16T07:34:19;5.65;;;4.00;;
28252;SDS011;15515;45.588;5.276;2022-10-16T07:36:48;7.93;;;4.35;;
28252;SDS011;15515;45.588;5.276;2022-10-16T07:39:16;4.47;;;4.07;;
28252;SDS011;15515;45.588;5.276;2022-10-16T07:41:44;4.40;;;3.67;;
28252;SDS011;15515;45.588;5.276;2022-10-16T07:44:12;6.53;;;3.72;;
28252;SDS011;15515;45.588;5.276;2022-10-16T07:46:39;5.32;;;3.88;;
28252;SDS011;15515;45.588;5.276;2022-10-16T07:49:06;6.13;;;4.05;;
28252;SDS011;15515;45.588;5.276;2022-10-16T07:51:34;7.10;;;3.63;;
28252;SDS011;15515;45.588;5.276;2022-10-16T07:54:01;7.03;;;4.00;;
28252;SDS011;15515;45.588;5.276;2022-10-16T07:56:29;4.95;;;3.20;;
28252;SDS011;15515;45.588;5.276;2022-10-16T07:58:57;5.05;;;3.35;;
28252;SDS011;15515;45.588;5.276;2022-10-16T08:01:25;3.83;;;2.80;;
28252;SDS011;15515;45.588;5.276;2022-10-16T08:03:52;6.72;;;3.00;;
28252;SDS011;15515;45.588;5.276;2022-10-16T08:06:20;8.35;;;3.33;;
28252;SDS011;15515;45.588;5.276;2022-10-16T08:08:48;5.35;;;3.13;;
28252;SDS011;15515;45.588;5.276;2022-10-16T08:11:16;4.75;;;2.78;;
28252;SDS011;15515;45.588;5.276;2022-10-16T08:13:43;7.40;;;3.28;;
28252;SDS011;15515;45.588;5.276;2022-10-16T08:16:11;9.57;;;5.82;;
28252;SDS011;15515;45.588;5.276;2022-10-16T08:18:39;6.72;;;3.33;;
28252;SDS011;15515;45.588;5.276;2022-10-16T08:21:07;4.85;;;2.67;;
28252;SDS011;15515;45.588;5.276;2022-10-16T08:23:41;9.60;;;3.13;;
28252;SDS011;15515;45.588;5.276;2022-10-16T08:26:09;5.68;;;2.28;;
28252;SDS011;15515;45.588;5.276;2022-10-16T08:28:37;5.93;;;2.45;;
28252;SDS011;15515;45.588;5.276;2022-10-16T08:31:08;3.28;;;2.25;;
28252;SDS011;15515;45.588;5.276;2022-10-16T08:33:37;5.10;;;2.33;;
28252;SDS011;15515;45.588;5.276;2022-10-16T08:36:04;3.10;;;2.13;;
28252;SDS011;15515;45.588;5.276;2022-10-16T08:38:33;4.90;;;2.60;;
28252;SDS011;15515;45.588;5.276;2022-10-16T08:41:13;4.82;;;2.30;;
28252;SDS011;15515;45.588;5.276;2022-10-16T08:43:56;4.72;;;2.35;;
28252;SDS011;15515;45.588;5.276;2022-10-16T08:48:56;5.45;;;2.47;;
28252;SDS011;15515;45.588;5.276;2022-10-16T08:51:26;3.20;;;2.38;;
28252;SDS011;15515;45.588;5.276;2022-10-16T08:53:58;5.07;;;2.33;;
28252;SDS011;15515;45.588;5.276;2022-10-16T08:56:26;6.95;;;2.63;;
28252;SDS011;15515;45.588;5.276;2022-10-16T08:58:54;4.63;;;2.40;;
28252;SDS011;15515;45.588;5.276;2022-10-16T09:01:23;4.97;;;2.42;;
28252;SDS011;15515;45.588;5.276;2022-10-16T09:16:53;3.47;;;2.20;;
28252;SDS011;15515;45.588;5.276;2022-10-16T09:19:28;4.57;;;2.50;;
28252;SDS011;15515;45.588;5.276;2022-10-16T09:21:58;2.63;;;2.30;;
28252;SDS011;15515;45.588;5.276;2022-10-16T09:24:26;6.95;;;2.70;;
28252;SDS011;15515;45.588;5.276;2022-10-16T09:26:54;3.67;;;2.30;;
28252;SDS011;15515;45.588;5.276;2022-10-16T09:29:22;2.83;;;2.13;;
28252;SDS011;15515;45.588;5.276;2022-10-16T09:31:52;5.63;;;2.17;;
28252;SDS011;15515;45.588;5.276;2022-10-16T09:34:29;4.00;;;2.20;;
28252;SDS011;15515;45.588;5.276;2022-10-16T09:36:58;4.68;;;2.03;;
28252;SDS011;15515;45.588;5.276;2022-10-16T09:39:26;4.40;;;2.10;;
28252;SDS011;15515;45.588;5.276;2022-10-16T09:41:53;7.82;;;2.40;;
28252;SDS011;15515;45.588;5.276;2022-10-16T09:44:23;5.28;;;2.17;;
28252;SDS011;15515;45.588;5.276;2022-10-16T09:52:19;4.38;;;2.33;;
28252;SDS011;15515;45.588;5.276;2022-10-16T09:57:17;2.97;;;2.00;;
28252;SDS011;15515;45.588;5.276;2022-10-16T09:59:48;5.28;;;2.30;;
28252;SDS011;15515;45.588;5.276;2022-10-16T10:02:16;5.43;;;1.80;;
28252;SDS011;15515;45.588;5.276;2022-10-16T10:04:48;3.65;;;2.13;;
28252;SDS011;15515;45.588;5.276;2022-10-16T10:07:36;2.10;;;1.67;;
28252;SDS011;15515;45.588;5.276;2022-10-16T10:10:05;6.60;;;2.05;;
28252;SDS011;15515;45.588;5.276;2022-10-16T10:12:33;4.65;;;2.10;;
28252;SDS011;15515;45.588;5.276;2022-10-16T10:15:12;2.05;;;1.63;;
28252;SDS011;15515;45.588;5.276;2022-10-16T10:17:45;4.30;;;2.10;;
28252;SDS011;15515;45.588;5.276;2022-10-16T10:20:20;4.37;;;1.87;;
28252;SDS011;15515;45.588;5.276;2022-10-16T10:22:48;9.18;;;1.90;;
28252;SDS011;15515;45.588;5.276;2022-10-16T10:30:23;5.05;;;1.92;;
28252;SDS011;15515;45.588;5.276;2022-10-16T10:38:23;3.03;;;1.80;;
28252;SDS011;15515;45.588;5.276;2022-10-16T10:40:56;2.92;;;2.10;;
28252;SDS011;15515;45.588;5.276;2022-10-16T10:43:33;4.20;;;2.38;;
28252;SDS011;15515;45.588;5.276;2022-10-16T10:46:05;1.90;;;1.42;;
28252;SDS011;15515;45.588;5.276;2022-10-16T10:51:10;4.43;;;2.00;;
28252;SDS011;15515;45.588;5.276;2022-10-16T10:56:43;3.38;;;1.73;;
28252;SDS011;15515;45.588;5.276;2022-10-16T11:01:49;3.55;;;2.10;;
28252;SDS011;15515;45.588;5.276;2022-10-16T11:06:48;4.10;;;1.70;;
28252;SDS011;15515;45.588;5.276;2022-10-16T11:09:24;4.55;;;2.00;;
28252;SDS011;15515;45.588;5.276;2022-10-16T11:11:55;3.33;;;1.80;;
28252;SDS011;15515;45.588;5.276;2022-10-16T11:14:26;3.80;;;1.88;;
28252;SDS011;15515;45.588;5.276;2022-10-16T11:17:04;5.65;;;2.13;;
28252;SDS011;15515;45.588;5.276;2022-10-16T11:22:23;2.10;;;1.67;;
28252;SDS011;15515;45.588;5.276;2022-10-16T11:24:53;2.63;;;1.48;;
28252;SDS011;15515;45.588;5.276;2022-10-16T11:27:44;3.58;;;2.00;;
28252;SDS011;15515;45.588;5.276;2022-10-16T11:30:14;4.22;;;2.03;;
28252;SDS011;15515;45.588;5.276;2022-10-16T11:35:30;2.10;;;1.90;;
28252;SDS011;15515;45.588;5.276;2022-10-16T11:37:59;4.40;;;1.50;;
28252;SDS011;15515;45.588;5.276;2022-10-16T11:40:32;2.55;;;1.70;;
28252;SDS011;15515;45.588;5.276;2022-10-16T11:43:06;2.20;;;1.67;;
28252;SDS011;15515;45.588;5.276;2022-10-16T11:45:51;3.20;;;1.70;;
28252;SDS011;15515;45.588;5.276;2022-10-16T11:48:33;3.70;;;1.60;;
28252;SDS011;15515;45.588;5.276;2022-10-16T11:53:39;6.03;;;1.90;;
28252;SDS011;15515;45.588;5.276;2022-10-16T11:56:17;3.70;;;1.88;;
28252;SDS011;15515;45.588;5.276;2022-10-16T12:01:21;3.85;;;2.00;;
28252;SDS011;15515;45.588;5.276;2022-10-16T12:06:24;3.65;;;1.77;;
28252;SDS011;15515;45.588;5.276;2022-10-16T12:08:54;4.88;;;1.80;;
28252;SDS011;15515;45.588;5.276;2022-10-16T12:11:24;4.72;;;2.33;;
28252;SDS011;15515;45.588;5.276;2022-10-16T12:16:38;4.22;;;1.90;;
28252;SDS011;15515;45.588;5.276;2022-10-16T12:19:13;5.38;;;2.50;;
28252;SDS011;15515;45.588;5.276;2022-10-16T12:21:41;2.53;;;1.80;;
28252;SDS011;15515;45.588;5.276;2022-10-16T12:26:51;2.85;;;1.50;;
28252;SDS011;15515;45.588;5.276;2022-10-16T12:31:56;2.78;;;1.50;;
28252;SDS011;15515;45.588;5.276;2022-10-16T12:36:54;5.53;;;1.90;;
28252;SDS011;15515;45.588;5.276;2022-10-16T12:39:27;3.78;;;1.83;;
28252;SDS011;15515;45.588;5.276;2022-10-16T12:42:02;1.75;;;1.40;;
28252;SDS011;15515;45.588;5.276;2022-10-16T12:44:34;2.35;;;1.60;;
28252;SDS011;15515;45.588;5.276;2022-10-16T12:47:02;1.65;;;1.52;;
28252;SDS011;15515;45.588;5.276;2022-10-16T12:51:57;4.07;;;1.60;;
28252;SDS011;15515;45.588;5.276;2022-10-16T12:54:30;5.03;;;1.98;;
28252;SDS011;15515;45.588;5.276;2022-10-16T13:04:50;3.30;;;2.03;;
28252;SDS011;15515;45.588;5.276;2022-10-16T13:07:34;3.33;;;1.73;;
28252;SDS011;15515;45.588;5.276;2022-10-16T13:30:11;5.32;;;1.80;;
28252;SDS011;15515;45.588;5.276;2022-10-16T13:32:39;4.43;;;1.92;;
28252;SDS011;15515;45.588;5.276;2022-10-16T13:35:24;4.22;;;1.50;;
28252;SDS011;15515;45.588;5.276;2022-10-16T13:38:02;5.57;;;2.00;;
28252;SDS011;15515;45.588;5.276;2022-10-16T13:40:29;3.80;;;1.90;;
28252;SDS011;15515;45.588;5.276;2022-10-16T13:42:59;5.03;;;2.10;;
28252;SDS011;15515;45.588;5.276;2022-10-16T13:45:27;4.38;;;1.92;;
28252;SDS011;15515;45.588;5.276;2022-10-16T13:48:04;3.67;;;1.88;;
28252;SDS011;15515;45.588;5.276;2022-10-16T13:50:32;4.03;;;2.20;;
28252;SDS011;15515;45.588;5.276;2022-10-16T13:53:33;3.63;;;1.92;;
28252;SDS011;15515;45.588;5.276;2022-10-16T13:55:53;7.95;;;2.17;;
28252;SDS011;15515;45.588;5.276;2022-10-16T13:58:21;4.15;;;1.90;;
28252;SDS011;15515;45.588;5.276;2022-10-16T14:03:25;3.28;;;1.52;;
28252;SDS011;15515;45.588;5.276;2022-10-16T14:05:54;2.63;;;1.85;;
28252;SDS011;15515;45.588;5.276;2022-10-16T14:08:22;7.00;;;2.35;;
28252;SDS011;15515;45.588;5.276;2022-10-16T14:10:51;3.92;;;2.08;;
28252;SDS011;15515;45.588;5.276;2022-10-16T14:13:21;3.15;;;1.92;;
28252;SDS011;15515;45.588;5.276;2022-10-16T14:15:51;4.05;;;2.20;;
28252;SDS011;15515;45.588;5.276;2022-10-16T14:18:25;5.03;;;2.35;;
28252;SDS011;15515;45.588;5.276;2022-10-16T14:20:54;5.13;;;2.20;;
28252;SDS011;15515;45.588;5.276;2022-10-16T14:23:28;3.55;;;1.90;;
28252;SDS011;15515;45.588;5.276;2022-10-16T14:28:36;6.32;;;2.45;;
28252;SDS011;15515;45.588;5.276;2022-10-16T14:33:46;6.65;;;2.67;;
28252;SDS011;15515;45.588;5.276;2022-10-16T14:36:13;7.70;;;2.80;;
28252;SDS011;15515;45.588;5.276;2022-10-16T14:38:47;5.93;;;2.58;;
28252;SDS011;15515;45.588;5.276;2022-10-16T14:41:15;7.15;;;2.83;;
28252;SDS011;15515;45.588;5.276;2022-10-16T14:43:43;3.63;;;2.78;;
28252;SDS011;15515;45.588;5.276;2022-10-16T14:46:13;4.38;;;2.78;;
28252;SDS011;15515;45.588;5.276;2022-10-16T14:48:42;6.15;;;2.67;;
28252;SDS011;15515;45.588;5.276;2022-10-16T14:51:13;4.95;;;2.40;;
28252;SDS011;15515;45.588;5.276;2022-10-16T14:53:41;5.15;;;2.80;;
28252;SDS011;15515;45.588;5.276;2022-10-16T14:56:14;5.80;;;2.67;;
28252;SDS011;15515;45.588;5.276;2022-10-16T14:58:44;4.00;;;2.70;;
28252;SDS011;15515;45.588;5.276;2022-10-16T15:01:11;5.35;;;2.60;;
28252;SDS011;15515;45.588;5.276;2022-10-16T15:03:39;6.95;;;2.63;;
28252;SDS011;15515;45.588;5.276;2022-10-16T15:06:14;5.20;;;2.65;;
28252;SDS011;15515;45.588;5.276;2022-10-16T15:08:42;4.90;;;3.25;;
28252;SDS011;15515;45.588;5.276;2022-10-16T15:11:13;5.78;;;2.92;;
28252;SDS011;15515;45.588;5.276;2022-10-16T15:13:44;3.92;;;2.20;;
28252;SDS011;15515;45.588;5.276;2022-10-16T15:16:12;5.65;;;2.80;;
28252;SDS011;15515;45.588;5.276;2022-10-16T15:18:40;3.70;;;2.80;;
28252;SDS011;15515;45.588;5.276;2022-10-16T15:21:08;5.47;;;2.53;;
28252;SDS011;15515;45.588;5.276;2022-10-16T15:23:37;7.05;;;2.92;;
28252;SDS011;15515;45.588;5.276;2022-10-16T15:26:05;2.90;;;2.60;;
28252;SDS011;15515;45.588;5.276;2022-10-16T15:28:33;8.63;;;2.80;;
28252;SDS011;15515;45.588;5.276;2022-10-16T15:31:02;5.28;;;2.45;;
28252;SDS011;15515;45.588;5.276;2022-10-16T15:33:31;6.53;;;2.97;;
28252;SDS011;15515;45.588;5.276;2022-10-16T15:36:02;6.15;;;2.88;;
28252;SDS011;15515;45.588;5.276;2022-10-16T15:38:30;4.32;;;2.80;;
28252;SDS011;15515;45.588;5.276;2022-10-16T15:40:57;3.75;;;2.45;;
28252;SDS011;15515;45.588;5.276;2022-10-16T15:43:25;5.07;;;3.00;;
28252;SDS011;15515;45.588;5.276;2022-10-16T15:48:27;7.40;;;4.22;;
28252;SDS011;15515;45.588;5.276;2022-10-16T15:50:55;3.90;;;2.40;;
28252;SDS011;15515;45.588;5.276;2022-10-16T15:53:22;4.97;;;2.50;;
28252;SDS011;15515;45.588;5.276;2022-10-16T15:55:50;7.15;;;2.25;;
28252;SDS011;15515;45.588;5.276;2022-10-16T15:58:17;5.07;;;2.30;;
28252;SDS011;15515;45.588;5.276;2022-10-16T16:00:45;4.93;;;2.25;;
28252;SDS011;15515;45.588;5.276;2022-10-16T16:03:12;6.15;;;2.13;;
28252;SDS011;15515;45.588;5.276;2022-10-16T16:05:40;3.58;;;2.13;;
28252;SDS011;15515;45.588;5.276;2022-10-16T16:08:10;4.57;;;2.40;;
28252;SDS011;15515;45.588;5.276;2022-10-16T16:10:38;4.78;;;2.33;;
28252;SDS011;15515;45.588;5.276;2022-10-16T16:13:05;2.97;;;2.28;;
28252;SDS011;15515;45.588;5.276;2022-10-16T16:15:33;3.72;;;2.40;;
28252;SDS011;15515;45.588;5.276;2022-10-16T16:18:00;3.35;;;2.70;;
28252;SDS011;15515;45.588;5.276;2022-10-16T16:20:30;2.85;;;2.60;;
28252;SDS011;15515;45.588;5.276;2022-10-16T16:22:57;2.47;;;2.20;;
28252;SDS011;15515;45.588;5.276;2022-10-16T16:25:28;5.38;;;2.88;;
28252;SDS011;15515;45.588;5.276;2022-10-16T16:27:55;2.22;;;1.98;;
28252;SDS011;15515;45.588;5.276;2022-10-16T16:30:23;6.07;;;2.95;;
28252;SDS011;15515;45.588;5.276;2022-10-16T16:32:53;3.83;;;2.38;;
28252;SDS011;15515;45.588;5.276;2022-10-16T16:35:21;2.90;;;2.22;;
28252;SDS011;15515;45.588;5.276;2022-10-16T16:37:48;8.95;;;2.75;;
28252;SDS011;15515;45.588;5.276;2022-10-16T16:40:15;5.07;;;2.58;;
28252;SDS011;15515;45.588;5.276;2022-10-16T16:42:43;6.15;;;2.67;;
28252;SDS011;15515;45.588;5.276;2022-10-16T16:45:10;5.20;;;2.53;;
28252;SDS011;15515;45.588;5.276;2022-10-16T16:47:38;6.63;;;3.22;;
28252;SDS011;15515;45.588;5.276;2022-10-16T16:50:05;4.75;;;2.90;;
28252;SDS011;15515;45.588;5.276;2022-10-16T16:52:36;4.22;;;2.92;;
28252;SDS011;15515;45.588;5.276;2022-10-16T16:55:04;4.10;;;3.25;;
28252;SDS011;15515;45.588;5.276;2022-10-16T16:57:31;6.65;;;3.15;;
28252;SDS011;15515;45.588;5.276;2022-10-16T16:59:59;4.20;;;2.90;;
28252;SDS011;15515;45.588;5.276;2022-10-16T17:02:26;5.75;;;4.03;;
28252;SDS011;15515;45.588;5.276;2022-10-16T17:04:53;8.32;;;3.00;;
28252;SDS011;15515;45.588;5.276;2022-10-16T17:07:23;3.88;;;3.10;;
28252;SDS011;15515;45.588;5.276;2022-10-16T17:09:52;4.50;;;2.97;;
